• Join FlightAware (Why Join?)
  • Login
  • US Flag 
09:50PM EDT


 

Airport Tracker/Info


-or-


 

Live Flight TrackerFlight Track Log ✈ DAL6234 ✈ 28-Apr-2013 ✈ KSYR - KLGA

Flight Track Log - Related Links

Times and Time Zones

All times are in EDT time to prevent confusion due to time zone crossing. See the DAL6234 flight status page for this flight to view local times or setup timezone preferences in your user account.

Time Position Orientation Groundspeed Altitude Reporting Facility
EDT Latitude Longitude Course Direction KTS MPH feet Rate Location/Type
06:04PM 43.1092 -76.0864 112° Southeast 161 185 1,300  Level Boston Center
06:05PM 43.0903 -76.0228 112° Southeast 194 223 4,200 3,180 Climbing Boston Center
06:06PM 43.0481 -75.9692 137° Southeast 210 242 7,800 3,240 Climbing Boston Center
06:07PM 42.9958 -75.9036 137° Southeast 234 269 10,700 2,520 Climbing Boston Center
06:08PM 42.9317 -75.8206 137° Southeast 276 318 12,900 2,100 Climbing Boston Center
06:09PM 42.8611 -75.7375 139° Southeast 317 365 15,000 1,860 Climbing Boston Center
06:10PM 42.7908 -75.6458 136° Southeast 340 391 17,100 1,920 Climbing Boston Center
06:11PM 42.7000 -75.5339 138° Southeast 353 406 19,300 1,680 Climbing Boston Center
06:12PM 42.6214 -75.4367 138° Southeast 368 423 20,800 720 Climbing Boston Center
06:13PM 42.5186 -75.3050 137° Southeast 398 458 21,000 60 Climbing Boston Center
06:14PM 42.4542 -75.2119 133° Southeast 414 476 21,000 -900 Level Boston Center
06:15PM 42.3894 -75.0375 117° Southeast 429 494 19,300 -1,380 Descending Boston Center
06:16PM 42.3364 -74.8864 115° Southeast 429 494 18,300 -720 Descending Boston Center
06:17PM 42.2831 -74.7497 118° Southeast 429 494 17,900 -180 Descending Boston Center
06:18PM 42.2317 -74.6047 116° Southeast 424 488 18,000  Climbing Boston Center
06:19PM 42.1761 -74.4628 118° Southeast 424 488 18,000  Level Boston Center
06:20PM 42.1244 -74.3183 116° Southeast 424 488 18,000  Level Boston Center
06:21PM 42.0678 -74.1964 122° Southeast 424 488 18,000  Level Boston Center
06:22PM 41.9967 -74.0769 129° Southeast 419 482 18,000 -300 Level Boston Center
06:23PM 41.8767 -74.0183 160° South 405 466 17,400 -1,140 Descending Boston Center
06:24PM 41.7814 -73.9797 163° South 410 472 15,800 -1,740 Descending Boston Center
06:25PM 41.6819 -73.9383 163° South 376 433 14,000 -1,680 Descending Boston Center
06:26PM 41.6092 -73.9089 163° South 312 359 12,500 -1,320 Descending Boston Center
06:27PM 41.5264 -73.8764 164° South 290 334 11,400 -780 Descending Boston Center
06:28PM 41.4897 -73.8036 124° Southeast 256 295 11,000 -240 Descending Boston Center
06:29PM 41.5611 -73.7661 21° North 121 139 11,000  Level Boston Center
06:30PM 41.5914 -73.8444 297° West 164 189 11,000  Level Boston Center
06:31PM 41.5117 -73.8928 204° Southwest 222 255 11,000  Level Boston Center
06:32PM 41.4492 -73.8858 175° South 239 275 11,000  Level Boston Center
06:33PM 41.3925 -73.9231 206° Southwest 199 229 11,000  Level Boston Center
06:34PM 41.4378 -73.9658 325° Northwest 100 115 11,000  Level Boston Center
06:35PM 41.5150 -73.9539 North 163 188 11,000  Level Boston Center
06:36PM 41.5778 -73.9219 21° North 225 259 11,000 -360 Level Boston Center
06:38PM 41.5000 -73.8500 145° Southeast 283 326 10,100 -780 Descending New York TRACON
06:39PM 41.4333 -73.8667 191° South 276 318 9,100 -840 Descending New York TRACON
06:40PM 41.3667 -73.8167 151° Southeast 285 328 8,500 -600 Descending New York TRACON
06:41PM 41.3000 -73.7667 151° Southeast 275 316 8,000 -300 Descending New York TRACON
06:42PM 41.2333 -73.7000 143° Southeast 279 321 8,000 -420 Level New York TRACON
06:43PM 41.1667 -73.6500 151° Southeast 281 323 7,200 -1,260 Descending New York TRACON
06:44PM 41.1000 -73.6167 159° South 273 314 5,500 -1,560 Descending New York TRACON
06:45PM 41.0500 -73.6500 207° Southwest 228 262 4,100 -780 Descending New York TRACON
06:46PM 41.0000 -73.7000 217° Southwest 210 242 4,000 -60 Descending New York TRACON
06:47PM 40.9500 -73.7333 207° Southwest 197 227 4,000  Level New York TRACON